Time;durP1;ratioP1;P1;durP2;ratioP2;P2;SDS_P1;SDS_P2;PMS_P1;PMS_P2;Temp;Humidity;BMP_temperature;BMP_pressure;BME280_temperature;BME280_humidity;BME280_pressure;Samples;Min_cycle;Max_cycle;Signal;HPM_P1;HPM_P2
2024/02/17 00:00:35;;;;;;;12.93;4.47;;;9.90;99.90;;;;;;5048207;28;20047;-73
2024/02/17 00:03:01;;;;;;;8.23;4.30;;;9.90;99.90;;;;;;5046217;28;20512;-73
2024/02/17 00:05:26;;;;;;;11.15;3.97;;;9.90;99.90;;;;;;5066059;28;20051;-71
2024/02/17 00:07:55;;;;;;;11.13;4.30;;;9.90;99.90;;;;;;5058926;28;20032;-70
2024/02/17 00:10:21;;;;;;;12.25;4.47;;;9.90;99.90;;;;;;5066252;28;20060;-73
2024/02/17 00:12:46;;;;;;;9.70;4.30;;;9.90;99.90;;;;;;5045869;28;20051;-73
2024/02/17 00:15:13;;;;;;;9.77;4.10;;;9.90;99.90;;;;;;5062438;28;20058;-72
2024/02/17 00:17:38;;;;;;;8.80;3.70;;;9.90;99.90;;;;;;5068088;28;20044;-72
2024/02/17 00:20:04;;;;;;;12.07;4.25;;;9.90;99.90;;;;;;5047537;28;20110;-72
2024/02/17 00:22:30;;;;;;;9.20;4.53;;;9.90;99.90;;;;;;5064554;28;20087;-72
2024/02/17 00:24:55;;;;;;;13.98;4.15;;;9.90;99.90;;;;;;5064252;28;20776;-73
2024/02/17 00:27:21;;;;;;;14.43;4.75;;;10.00;99.90;;;;;;5064752;28;20032;-71
2024/02/17 00:29:47;;;;;;;10.57;3.45;;;10.00;99.90;;;;;;5046888;28;20131;-72
2024/02/17 00:32:13;;;;;;;7.90;3.53;;;10.00;99.90;;;;;;5043375;28;20112;-72
2024/02/17 00:34:39;;;;;;;7.25;3.22;;;9.90;99.90;;;;;;5048449;28;20032;-72
2024/02/17 00:37:05;;;;;;;11.90;3.13;;;9.90;99.90;;;;;;5069083;28;20037;-72
2024/02/17 00:39:31;;;;;;;8.52;3.63;;;9.90;99.90;;;;;;5067965;28;20527;-71
2024/02/17 00:41:56;;;;;;;10.27;3.67;;;9.90;99.90;;;;;;5043342;28;20043;-73
2024/02/17 00:44:22;;;;;;;9.13;3.10;;;9.90;99.90;;;;;;5065970;28;20032;-71
2024/02/17 00:46:48;;;;;;;7.80;3.53;;;9.90;99.90;;;;;;5044995;28;20044;-72
2024/02/17 00:49:13;;;;;;;8.45;3.90;;;9.90;99.90;;;;;;5062562;28;20063;-72
2024/02/17 00:51:39;;;;;;;11.38;4.10;;;9.90;99.90;;;;;;5046520;28;20033;-73
2024/02/17 00:54:04;;;;;;;12.30;3.03;;;9.90;99.90;;;;;;5060631;28;20052;-73
2024/02/17 00:56:30;;;;;;;8.18;2.90;;;9.90;99.90;;;;;;5063184;28;20115;-71
2024/02/17 00:58:55;;;;;;;8.15;2.78;;;9.90;99.90;;;;;;5060627;28;20031;-72
2024/02/17 01:01:21;;;;;;;12.18;3.22;;;9.90;99.90;;;;;;5044434;28;20029;-72
2024/02/17 01:03:46;;;;;;;7.72;2.90;;;9.90;99.90;;;;;;5062704;28;20044;-72
2024/02/17 01:06:12;;;;;;;10.88;3.28;;;9.90;99.90;;;;;;5039493;28;20029;-71
2024/02/17 01:08:38;;;;;;;5.57;2.60;;;9.90;99.90;;;;;;5045404;28;20731;-73
2024/02/17 01:11:03;;;;;;;11.80;4.05;;;9.90;99.90;;;;;;5042883;28;20043;-71
2024/02/17 01:13:29;;;;;;;6.63;2.65;;;9.90;99.90;;;;;;5043538;28;20045;-71
2024/02/17 01:15:56;;;;;;;8.82;2.78;;;9.90;99.90;;;;;;5059842;28;20546;-71
2024/02/17 01:18:21;;;;;;;5.05;2.88;;;9.90;99.90;;;;;;5061668;28;20190;-70
2024/02/17 01:20:47;;;;;;;6.40;3.20;;;9.90;99.90;;;;;;5043372;28;20520;-71
2024/02/17 01:23:13;;;;;;;5.82;2.85;;;10.00;99.90;;;;;;5057285;28;20033;-73
2024/02/17 01:25:38;;;;;;;5.32;2.72;;;10.00;99.90;;;;;;5048934;28;20051;-72
2024/02/17 01:28:05;;;;;;;8.60;2.88;;;10.00;99.90;;;;;;5042626;28;20044;-71
2024/02/17 01:30:30;;;;;;;8.05;2.63;;;10.00;99.90;;;;;;5042900;28;20036;-73
2024/02/17 01:32:56;;;;;;;5.72;2.38;;;9.90;99.90;;;;;;5061896;28;20154;-71
2024/02/17 01:35:21;;;;;;;7.07;2.65;;;10.00;99.90;;;;;;5059800;28;20520;-71
2024/02/17 01:37:48;;;;;;;18.83;2.70;;;10.00;99.90;;;;;;5041269;28;20045;-71
2024/02/17 01:40:16;;;;;;;6.45;2.70;;;10.00;99.90;;;;;;5059719;28;20052;-71
2024/02/17 01:42:42;;;;;;;14.75;2.67;;;9.90;99.90;;;;;;5061051;28;20048;-70
2024/02/17 01:45:10;;;;;;;5.00;2.47;;;10.00;99.90;;;;;;5055052;28;20048;-72
2024/02/17 01:47:36;;;;;;;13.05;2.90;;;10.00;99.90;;;;;;5042480;28;20044;-72
2024/02/17 01:50:02;;;;;;;7.57;3.40;;;10.00;99.90;;;;;;5043680;28;20033;-71
2024/02/17 01:52:30;;;;;;;5.13;2.20;;;10.00;99.90;;;;;;5058715;28;20040;-71
2024/02/17 01:54:55;;;;;;;13.73;2.72;;;10.00;99.90;;;;;;5056645;28;20035;-70
2024/02/17 01:57:22;;;;;;;5.50;2.17;;;10.00;99.90;;;;;;5057888;28;20488;-71
2024/02/17 01:59:48;;;;;;;6.22;2.65;;;10.00;99.90;;;;;;5056317;28;20442;-71
2024/02/17 02:02:13;;;;;;;5.18;2.55;;;10.00;99.90;;;;;;5040672;28;20047;-72
2024/02/17 02:04:39;;;;;;;8.80;2.80;;;10.00;99.90;;;;;;5062464;28;20036;-72
2024/02/17 02:07:05;;;;;;;5.75;2.45;;;10.00;99.90;;;;;;5063267;28;20035;-74
2024/02/17 02:09:30;;;;;;;8.63;2.53;;;10.00;99.90;;;;;;5050004;28;20440;-72
2024/02/17 02:11:57;;;;;;;8.77;2.00;;;10.00;99.90;;;;;;5063792;28;20078;-72
2024/02/17 02:14:23;;;;;;;4.55;2.42;;;9.90;99.90;;;;;;5064429;28;20033;-71
2024/02/17 02:16:48;;;;;;;6.97;2.85;;;9.90;99.90;;;;;;5066036;28;20059;-71
2024/02/17 02:19:15;;;;;;;5.97;2.05;;;9.90;99.90;;;;;;5037721;28;20510;-74
2024/02/17 02:21:42;;;;;;;4.85;2.28;;;9.90;99.90;;;;;;5047642;28;20036;-72
2024/02/17 02:24:08;;;;;;;6.43;1.73;;;9.90;99.90;;;;;;5064729;28;20103;-71
2024/02/17 02:26:34;;;;;;;5.03;2.13;;;9.90;99.90;;;;;;5044892;28;20264;-70
2024/02/17 02:29:00;;;;;;;5.97;2.25;;;9.90;99.90;;;;;;5044453;28;20096;-73
2024/02/17 02:31:26;;;;;;;5.72;1.80;;;9.90;99.90;;;;;;5047135;28;20056;-71
2024/02/17 02:33:52;;;;;;;6.82;2.42;;;9.90;99.90;;;;;;5048534;28;20493;-70
2024/02/17 02:36:18;;;;;;;4.13;1.73;;;9.90;99.90;;;;;;5047001;28;20039;-72
2024/02/17 02:38:44;;;;;;;9.32;2.55;;;9.80;99.90;;;;;;5037524;28;20036;-73
2024/02/17 02:41:11;;;;;;;5.60;1.52;;;9.90;99.90;;;;;;5061598;28;20079;-71
2024/02/17 02:43:37;;;;;;;9.80;2.72;;;9.80;99.90;;;;;;5066138;28;20029;-71
2024/02/17 02:46:02;;;;;;;6.80;1.35;;;9.90;99.90;;;;;;5047280;28;20048;-69
2024/02/17 02:48:28;;;;;;;4.68;1.92;;;9.90;99.90;;;;;;5064243;28;20044;-72
2024/02/17 02:50:54;;;;;;;4.85;1.67;;;9.80;99.90;;;;;;5064830;28;20576;-70
2024/02/17 02:53:20;;;;;;;6.78;2.05;;;9.90;99.90;;;;;;5061309;28;20116;-71
2024/02/17 02:55:45;;;;;;;3.05;1.40;;;9.90;99.90;;;;;;5048558;28;20447;-73
2024/02/17 02:58:11;;;;;;;6.82;2.17;;;9.90;99.90;;;;;;5046870;28;20041;-72
2024/02/17 03:00:37;;;;;;;6.95;1.65;;;9.90;99.90;;;;;;5047641;28;20037;-73
2024/02/17 03:03:02;;;;;;;5.78;1.08;;;9.90;99.90;;;;;;5066713;28;20086;-72
2024/02/17 03:05:28;;;;;;;3.17;1.40;;;9.90;99.90;;;;;;5063182;28;20082;-72
2024/02/17 03:07:54;;;;;;;8.55;1.27;;;9.90;99.90;;;;;;5047678;28;20070;-71
2024/02/17 03:10:19;;;;;;;5.70;1.42;;;9.90;99.90;;;;;;5047506;28;20485;-73
2024/02/17 03:12:45;;;;;;;7.85;0.95;;;10.00;99.90;;;;;;5047342;28;20029;-74
2024/02/17 03:15:11;;;;;;;4.07;1.00;;;9.90;99.90;;;;;;5046185;28;20166;-74
2024/02/17 03:17:36;;;;;;;4.10;1.00;;;10.00;99.90;;;;;;5051958;28;20040;-74
2024/02/17 03:20:06;;;;;;;3.92;1.00;;;10.00;99.90;;;;;;5048480;28;20452;-72
2024/02/17 03:22:35;;;;;;;4.57;1.13;;;10.00;99.90;;;;;;5065811;28;20032;-74
2024/02/17 03:25:00;;;;;;;3.00;0.98;;;10.00;99.90;;;;;;5049018;28;20582;-72
2024/02/17 03:27:27;;;;;;;4.68;1.38;;;10.00;99.90;;;;;;5046419;28;20048;-74
2024/02/17 03:29:53;;;;;;;6.85;1.50;;;10.00;99.90;;;;;;5066715;28;20081;-73
2024/02/17 03:32:18;;;;;;;5.00;1.30;;;10.00;99.90;;;;;;5065229;28;20036;-72
2024/02/17 03:34:44;;;;;;;3.50;1.27;;;10.00;99.90;;;;;;5066683;28;20112;-72
2024/02/17 03:37:10;;;;;;;6.65;1.45;;;10.00;99.90;;;;;;5044619;28;20037;-70
2024/02/17 03:39:35;;;;;;;5.30;1.13;;;10.00;99.90;;;;;;5044646;28;20036;-73
2024/02/17 03:42:01;;;;;;;5.95;1.30;;;10.00;99.90;;;;;;5047054;28;20032;-72
2024/02/17 03:44:27;;;;;;;5.53;1.10;;;10.00;99.90;;;;;;5048399;28;20036;-72
2024/02/17 03:46:52;;;;;;;5.40;1.30;;;10.00;99.90;;;;;;5066163;28;20108;-73
2024/02/17 03:49:21;;;;;;;4.40;1.63;;;10.00;99.90;;;;;;5044125;28;20054;-72
2024/02/17 03:51:50;;;;;;;3.65;1.00;;;10.00;99.90;;;;;;5050854;28;20032;-71
2024/02/17 03:54:17;;;;;;;3.55;1.48;;;10.00;99.90;;;;;;5052428;28;20106;-71
2024/02/17 03:56:42;;;;;;;6.30;1.52;;;10.00;99.90;;;;;;5063584;28;20467;-72
2024/02/17 03:59:08;;;;;;;5.43;1.83;;;10.00;99.90;;;;;;5044917;28;20040;-71
2024/02/17 04:01:35;;;;;;;4.68;1.45;;;10.00;99.90;;;;;;5063481;28;20037;-70
2024/02/17 04:04:03;;;;;;;4.25;1.30;;;10.00;99.90;;;;;;5045773;28;20109;-71
2024/02/17 04:06:29;;;;;;;7.47;2.50;;;10.00;99.90;;;;;;5064601;28;20032;-75
2024/02/17 04:08:54;;;;;;;6.75;1.30;;;10.00;99.90;;;;;;5063194;28;20035;-70
2024/02/17 04:11:20;;;;;;;8.07;1.92;;;10.00;99.90;;;;;;5060279;28;20243;-71
2024/02/17 04:13:45;;;;;;;7.30;1.70;;;10.00;99.90;;;;;;5057305;28;20021;-71
2024/02/17 04:16:11;;;;;;;4.88;1.80;;;10.00;99.90;;;;;;5062102;28;20363;-72
2024/02/17 04:18:36;;;;;;;5.43;1.60;;;9.90;99.90;;;;;;5062305;28;20126;-73
2024/02/17 04:21:03;;;;;;;4.53;1.55;;;10.00;99.90;;;;;;5046413;28;20032;-69
2024/02/17 04:23:30;;;;;;;5.22;1.48;;;9.90;99.90;;;;;;5061157;28;20123;-72
2024/02/17 04:25:57;;;;;;;7.38;1.52;;;9.90;99.90;;;;;;5044381;28;20576;-75
2024/02/17 04:28:23;;;;;;;7.38;2.60;;;9.90;99.90;;;;;;5041505;28;20120;-74
2024/02/17 04:30:48;;;;;;;10.05;2.53;;;9.90;99.90;;;;;;5059963;28;20111;-71
2024/02/17 04:33:14;;;;;;;8.88;1.60;;;9.90;99.90;;;;;;5060795;28;20788;-71
2024/02/17 04:35:39;;;;;;;7.75;1.70;;;9.90;99.90;;;;;;5061065;28;20068;-72
2024/02/17 04:38:05;;;;;;;11.63;1.80;;;9.90;99.90;;;;;;5060654;28;20036;-73
2024/02/17 04:40:30;;;;;;;3.05;1.30;;;9.90;99.90;;;;;;5040532;28;20106;-73
2024/02/17 04:42:56;;;;;;;6.88;2.47;;;9.90;99.90;;;;;;5062222;28;20086;-71
2024/02/17 04:45:23;;;;;;;6.97;1.65;;;9.90;99.90;;;;;;5040452;28;20516;-71
2024/02/17 04:47:49;;;;;;;5.30;2.03;;;9.90;99.90;;;;;;5061599;28;20048;-72
2024/02/17 04:50:14;;;;;;;5.20;1.88;;;9.90;99.90;;;;;;5065076;28;20118;-71
2024/02/17 04:52:41;;;;;;;6.32;1.98;;;9.90;99.90;;;;;;5059617;28;20087;-70
2024/02/17 04:55:07;;;;;;;6.93;2.83;;;9.90;99.90;;;;;;5061279;28;20040;-72
2024/02/17 04:57:32;;;;;;;5.22;1.67;;;9.90;99.90;;;;;;5040968;28;20040;-72
2024/02/17 04:59:58;;;;;;;5.90;1.77;;;9.90;99.90;;;;;;5064111;28;20036;-72
2024/02/17 05:02:23;;;;;;;7.53;1.80;;;9.80;99.90;;;;;;5037732;28;20079;-70
2024/02/17 05:04:49;;;;;;;7.13;1.63;;;9.80;99.90;;;;;;5042768;28;20036;-73
2024/02/17 05:07:15;;;;;;;11.23;2.03;;;9.90;99.90;;;;;;5057563;28;20044;-73
2024/02/17 05:09:40;;;;;;;11.63;2.42;;;9.80;99.90;;;;;;5063829;28;20032;-71
2024/02/17 05:12:06;;;;;;;9.90;2.22;;;9.80;99.90;;;;;;5062842;28;20391;-73
2024/02/17 05:14:36;;;;;;;8.88;1.70;;;9.80;99.90;;;;;;5058932;28;20032;-71
2024/02/17 05:17:02;;;;;;;9.13;3.10;;;9.90;99.90;;;;;;5060568;28;20578;-71
2024/02/17 05:19:28;;;;;;;10.48;2.72;;;9.80;99.90;;;;;;5055349;28;20040;-72
2024/02/17 05:21:54;;;;;;;6.78;1.75;;;9.80;99.90;;;;;;5042025;28;20078;-71
2024/02/17 05:24:20;;;;;;;7.80;2.50;;;9.80;99.90;;;;;;5059594;28;20090;-73
2024/02/17 05:26:45;;;;;;;6.00;2.40;;;9.80;99.90;;;;;;5063197;28;20033;-70
2024/02/17 05:29:11;;;;;;;9.20;2.03;;;9.80;99.90;;;;;;5045140;28;20458;-72
2024/02/17 05:31:36;;;;;;;4.97;1.95;;;9.80;99.90;;;;;;5048727;28;20029;-71
2024/02/17 05:34:05;;;;;;;7.00;2.28;;;9.80;99.90;;;;;;5043990;28;20063;-71
2024/02/17 05:36:31;;;;;;;6.22;2.10;;;9.70;99.90;;;;;;5060677;28;20111;-70
2024/02/17 05:38:56;;;;;;;4.50;1.67;;;9.70;99.90;;;;;;5066290;28;20434;-71
2024/02/17 05:41:22;;;;;;;13.98;2.80;;;9.70;99.90;;;;;;5063593;28;20041;-71
2024/02/17 05:43:48;;;;;;;10.35;2.50;;;9.70;99.90;;;;;;5066924;28;20113;-71
2024/02/17 05:46:13;;;;;;;7.10;2.15;;;9.70;99.90;;;;;;5063289;28;20046;-71
2024/02/17 05:48:39;;;;;;;11.15;2.90;;;9.70;99.90;;;;;;5067429;28;20067;-71
2024/02/17 05:51:04;;;;;;;10.18;2.33;;;9.70;99.90;;;;;;5062000;28;20123;-70
2024/02/17 05:53:30;;;;;;;10.13;2.63;;;9.70;99.90;;;;;;5057359;28;20119;-74
2024/02/17 05:55:56;;;;;;;9.80;2.13;;;9.70;99.90;;;;;;5047282;28;20028;-70
2024/02/17 05:58:22;;;;;;;9.57;2.28;;;9.70;99.90;;;;;;5047741;28;20045;-71
2024/02/17 06:00:48;;;;;;;12.93;3.10;;;9.70;99.90;;;;;;5065140;28;20053;-71
2024/02/17 06:03:14;;;;;;;13.35;3.47;;;9.70;99.90;;;;;;5064995;28;20036;-71
2024/02/17 06:05:40;;;;;;;8.52;2.50;;;9.70;99.90;;;;;;5047224;28;20042;-73
2024/02/17 06:08:06;;;;;;;8.30;2.60;;;9.70;99.90;;;;;;5040463;28;20032;-70
2024/02/17 06:10:31;;;;;;;9.07;2.53;;;9.70;99.90;;;;;;5045499;28;20032;-69
2024/02/17 06:12:57;;;;;;;11.43;3.25;;;9.60;99.90;;;;;;5063798;28;20041;-74
2024/02/17 06:15:24;;;;;;;12.05;2.85;;;9.60;99.90;;;;;;5057670;28;20044;-71
2024/02/17 06:21:10;;;;;;;10.30;2.33;;;9.60;99.90;;;;;;5064484;28;20040;-74
2024/02/17 06:23:23;;;;;;;8.63;2.20;;;9.60;99.90;;;;;;5043398;28;20094;-70
2024/02/17 06:25:48;;;;;;;10.38;2.40;;;9.60;99.90;;;;;;5047233;28;20441;-72
2024/02/17 06:28:14;;;;;;;6.20;2.72;;;9.60;99.90;;;;;;5045957;28;20520;-72
2024/02/17 06:30:39;;;;;;;7.43;2.22;;;9.60;99.90;;;;;;5039628;28;20079;-72
2024/02/17 06:33:05;;;;;;;9.63;2.40;;;9.50;99.90;;;;;;5045627;28;20033;-72
2024/02/17 06:35:31;;;;;;;11.20;2.80;;;9.50;99.90;;;;;;5045773;28;20075;-71
2024/02/17 06:37:56;;;;;;;10.00;2.58;;;9.50;99.90;;;;;;5046046;28;20076;-75
2024/02/17 06:40:22;;;;;;;10.27;2.97;;;9.50;99.90;;;;;;5044222;28;20040;-71
2024/02/17 06:42:48;;;;;;;10.95;3.05;;;9.50;99.90;;;;;;5043529;28;20041;-72
2024/02/17 06:45:16;;;;;;;6.38;2.65;;;9.50;99.90;;;;;;5053226;28;20041;-72
2024/02/17 06:47:45;;;;;;;9.63;2.55;;;9.50;99.90;;;;;;5053021;28;20042;-73
2024/02/17 06:50:11;;;;;;;8.48;2.30;;;9.50;99.90;;;;;;5044404;28;20043;-69
2024/02/17 06:52:37;;;;;;;11.68;2.95;;;9.50;99.90;;;;;;5051968;28;20037;-71
2024/02/17 06:55:03;;;;;;;8.45;2.65;;;9.50;99.90;;;;;;5068606;28;20067;-69
2024/02/17 06:57:29;;;;;;;10.43;2.67;;;9.50;99.90;;;;;;5067736;28;20047;-71
2024/02/17 06:59:55;;;;;;;10.05;3.35;;;9.50;99.90;;;;;;5069171;28;20397;-71
2024/02/17 07:02:23;;;;;;;12.13;2.92;;;9.50;99.90;;;;;;5064256;28;20057;-73
2024/02/17 07:04:50;;;;;;;8.70;3.00;;;9.50;99.90;;;;;;5069655;28;20094;-71
2024/02/17 07:07:15;;;;;;;11.65;3.20;;;9.60;99.90;;;;;;5067510;28;20036;-73
2024/02/17 07:09:41;;;;;;;8.20;2.67;;;9.60;99.90;;;;;;5072299;28;20111;-72
2024/02/17 07:12:07;;;;;;;9.02;2.90;;;9.60;99.90;;;;;;5071454;28;20119;-72
2024/02/17 07:14:32;;;;;;;9.20;2.72;;;9.60;99.90;;;;;;5048110;28;20518;-72
2024/02/17 07:16:58;;;;;;;10.18;2.72;;;9.60;99.90;;;;;;5067981;28;20036;-71
2024/02/17 07:19:23;;;;;;;8.80;2.67;;;9.60;99.90;;;;;;5067276;28;20111;-69
2024/02/17 07:21:49;;;;;;;11.82;2.80;;;9.60;99.90;;;;;;5064598;28;20489;-71
2024/02/17 07:24:15;;;;;;;8.25;2.80;;;9.70;99.90;;;;;;5067053;28;20071;-73
2024/02/17 07:26:44;;;;;;;17.25;3.92;;;9.70;99.90;;;;;;5064400;28;20029;-70
2024/02/17 07:29:13;;;;;;;9.30;2.97;;;9.70;99.90;;;;;;5066336;28;20032;-71
2024/02/17 07:31:41;;;;;;;11.57;3.03;;;9.70;99.90;;;;;;5066319;28;20040;-71
2024/02/17 07:34:08;;;;;;;11.45;2.60;;;9.70;99.90;;;;;;5071091;28;20107;-74
2024/02/17 07:36:34;;;;;;;15.35;3.45;;;9.70;99.90;;;;;;5071261;28;20040;-74
2024/02/17 07:38:59;;;;;;;8.93;2.97;;;9.80;99.90;;;;;;5071622;28;20443;-72
2024/02/17 07:41:26;;;;;;;10.10;3.10;;;9.80;99.90;;;;;;5060367;28;20048;-72
2024/02/17 07:43:52;;;;;;;10.60;3.50;;;9.80;99.90;;;;;;5068438;28;20040;-74
2024/02/17 07:46:18;;;;;;;12.18;4.03;;;9.80;99.90;;;;;;5046994;28;20028;-74
2024/02/17 07:48:45;;;;;;;12.55;3.25;;;9.90;99.90;;;;;;5045531;28;20029;-71
2024/02/17 07:51:11;;;;;;;10.23;3.08;;;9.90;99.90;;;;;;5065218;28;20035;-72
2024/02/17 07:53:37;;;;;;;11.48;3.65;;;9.90;99.90;;;;;;5067211;28;20112;-72
2024/02/17 07:56:03;;;;;;;9.65;3.50;;;10.00;99.90;;;;;;5062342;28;20143;-75
2024/02/17 07:58:29;;;;;;;16.17;4.65;;;10.00;99.90;;;;;;5056985;28;20040;-71
2024/02/17 08:00:54;;;;;;;9.02;3.03;;;10.10;99.90;;;;;;5060461;28;20032;-74
2024/02/17 08:03:20;;;;;;;9.57;3.50;;;10.10;99.90;;;;;;5039937;28;20835;-71
2024/02/17 08:05:45;;;;;;;11.32;3.20;;;10.10;99.90;;;;;;5066279;28;20378;-72
2024/02/17 08:08:11;;;;;;;15.45;4.13;;;10.10;99.90;;;;;;5048463;28;20032;-74
2024/02/17 08:10:36;;;;;;;8.40;3.03;;;10.20;99.90;;;;;;5057917;28;20394;-71
2024/02/17 08:13:02;;;;;;;6.60;2.55;;;10.20;99.90;;;;;;5058073;28;20094;-73
2024/02/17 08:15:27;;;;;;;11.82;3.78;;;10.20;99.90;;;;;;5042847;28;20054;-71
2024/02/17 08:17:53;;;;;;;7.90;2.65;;;10.30;99.90;;;;;;5059342;28;20047;-74
2024/02/17 08:20:19;;;;;;;11.82;3.47;;;10.30;99.90;;;;;;5059093;28;20039;-73
2024/02/17 08:22:44;;;;;;;11.07;3.40;;;10.30;99.90;;;;;;5054470;28;20476;-72
2024/02/17 08:25:10;;;;;;;8.00;2.78;;;10.30;99.90;;;;;;5058728;28;20052;-72
2024/02/17 08:27:36;;;;;;;10.10;4.22;;;10.40;99.90;;;;;;5037580;28;20120;-74
2024/02/17 08:30:03;;;;;;;8.23;3.38;;;10.40;99.90;;;;;;5056764;28;20413;-74
2024/02/17 08:32:29;;;;;;;7.85;2.80;;;10.40;99.90;;;;;;5065703;28;20123;-71
2024/02/17 08:34:55;;;;;;;9.00;3.00;;;10.40;99.90;;;;;;5059844;28;20478;-72
2024/02/17 08:37:20;;;;;;;9.85;3.15;;;10.50;99.90;;;;;;5040952;28;20040;-73
2024/02/17 08:39:49;;;;;;;11.70;3.75;;;10.50;99.90;;;;;;5043649;28;20044;-74
2024/02/17 08:42:15;;;;;;;8.50;2.47;;;10.50;99.90;;;;;;5057734;28;20036;-76
2024/02/17 08:44:40;;;;;;;12.32;3.30;;;10.60;99.90;;;;;;5039070;28;20478;-75
2024/02/17 08:47:06;;;;;;;9.38;2.90;;;10.70;99.90;;;;;;5066529;28;20041;-74
2024/02/17 08:49:31;;;;;;;12.68;3.70;;;10.70;99.90;;;;;;5067979;28;20029;-72
2024/02/17 08:51:57;;;;;;;11.55;3.20;;;10.70;99.90;;;;;;5063178;28;20031;-73
2024/02/17 08:54:25;;;;;;;8.57;3.63;;;10.70;99.90;;;;;;5065539;28;20028;-75
2024/02/17 08:56:51;;;;;;;7.10;3.15;;;10.80;99.90;;;;;;5050086;28;20039;-74
2024/02/17 08:59:17;;;;;;;9.95;3.03;;;10.80;99.90;;;;;;5049106;28;20493;-73
2024/02/17 09:01:42;;;;;;;12.27;3.35;;;10.80;99.90;;;;;;5041026;28;20024;-71
2024/02/17 09:04:08;;;;;;;7.95;2.90;;;10.90;99.90;;;;;;5063476;28;20029;-72
2024/02/17 09:06:33;;;;;;;10.95;3.28;;;10.90;99.90;;;;;;5061300;28;20043;-74
2024/02/17 09:08:59;;;;;;;6.93;2.50;;;11.00;99.90;;;;;;5061641;28;20143;-74
2024/02/17 09:11:25;;;;;;;9.52;2.60;;;11.00;99.90;;;;;;5048696;28;20032;-72
2024/02/17 09:13:50;;;;;;;9.15;2.83;;;11.10;99.90;;;;;;5066895;28;20059;-73
2024/02/17 09:16:16;;;;;;;7.97;2.60;;;11.10;99.90;;;;;;5044411;28;20040;-74
2024/02/17 09:18:42;;;;;;;14.25;4.18;;;11.10;99.90;;;;;;5067719;28;20031;-73
2024/02/17 09:21:08;;;;;;;13.18;2.67;;;11.20;99.90;;;;;;5065901;28;20047;-71
2024/02/17 09:23:34;;;;;;;7.68;2.90;;;11.20;99.90;;;;;;5061499;28;20412;-75
2024/02/17 09:26:00;;;;;;;9.38;3.05;;;11.20;99.90;;;;;;5045681;28;20315;-74
2024/02/17 09:28:26;;;;;;;10.13;2.78;;;11.20;99.90;;;;;;5064912;28;20045;-73
2024/02/17 09:30:51;;;;;;;7.38;2.42;;;11.20;99.90;;;;;;5064491;28;20047;-73
2024/02/17 09:33:19;;;;;;;11.98;3.05;;;11.30;99.90;;;;;;5064112;28;20107;-75
2024/02/17 09:35:45;;;;;;;5.03;2.42;;;11.30;99.90;;;;;;5066811;28;20028;-76
2024/02/17 09:38:11;;;;;;;7.55;2.78;;;11.40;99.90;;;;;;5066769;28;20116;-75
2024/02/17 09:40:37;;;;;;;6.70;2.85;;;11.40;99.90;;;;;;5066648;28;20608;-74
2024/02/17 09:43:02;;;;;;;9.27;2.85;;;11.50;99.90;;;;;;5058838;28;20115;-76
2024/02/17 09:45:28;;;;;;;7.15;2.80;;;11.50;99.90;;;;;;5055686;28;20047;-74
2024/02/17 09:47:55;;;;;;;9.73;3.20;;;11.50;99.90;;;;;;5046001;28;20035;-73
2024/02/17 09:50:21;;;;;;;7.50;2.38;;;11.60;99.90;;;;;;5063766;28;20033;-74
2024/02/17 09:52:48;;;;;;;10.45;2.85;;;11.70;99.90;;;;;;5062143;28;20036;-73
2024/02/17 09:55:15;;;;;;;8.60;2.88;;;11.80;99.90;;;;;;5044586;28;20024;-73
2024/02/17 09:57:42;;;;;;;9.35;3.28;;;11.80;99.90;;;;;;5043888;28;20082;-73
2024/02/17 10:00:10;;;;;;;8.73;2.92;;;11.80;99.90;;;;;;5020700;28;20033;-73
2024/02/17 10:02:36;;;;;;;10.15;3.20;;;11.90;99.90;;;;;;5040152;28;20041;-73
2024/02/17 10:05:02;;;;;;;10.75;2.47;;;11.90;99.90;;;;;;5040433;28;20029;-74
2024/02/17 10:07:28;;;;;;;10.23;2.75;;;12.00;99.90;;;;;;5037316;28;20087;-74
2024/02/17 10:09:54;;;;;;;8.15;2.85;;;12.00;99.90;;;;;;5040364;28;20037;-74
2024/02/17 10:12:20;;;;;;;10.10;3.80;;;12.10;99.90;;;;;;5041482;28;20085;-74
2024/02/17 10:14:51;;;;;;;7.43;2.95;;;12.10;99.90;;;;;;5044276;28;20053;-75
2024/02/17 10:17:17;;;;;;;7.88;2.85;;;12.10;99.90;;;;;;5038554;28;20033;-74
2024/02/17 10:19:43;;;;;;;11.32;3.55;;;12.10;99.90;;;;;;5041353;28;20746;-73
2024/02/17 10:22:08;;;;;;;10.13;3.20;;;12.10;99.90;;;;;;5042984;28;20112;-73
2024/02/17 10:24:34;;;;;;;11.18;3.33;;;12.10;99.90;;;;;;5040934;28;20580;-75
2024/02/17 10:27:00;;;;;;;8.50;3.00;;;12.10;99.90;;;;;;5037909;28;20487;-76
2024/02/17 10:29:26;;;;;;;11.35;2.83;;;12.10;99.90;;;;;;5045008;28;20090;-74
2024/02/17 10:31:52;;;;;;;9.73;2.78;;;12.20;99.90;;;;;;5040816;28;20079;-73
2024/02/17 10:34:17;;;;;;;10.05;3.35;;;12.30;99.90;;;;;;5044749;28;20029;-74
2024/02/17 10:36:43;;;;;;;9.48;3.53;;;12.30;99.90;;;;;;5042509;28;20029;-73
2024/02/17 10:39:11;;;;;;;11.55;2.72;;;12.40;99.90;;;;;;5037630;28;20041;-73
2024/02/17 10:41:37;;;;;;;9.73;3.30;;;12.50;99.90;;;;;;5037718;28;20045;-73
2024/02/17 10:44:03;;;;;;;12.43;5.18;;;12.50;99.90;;;;;;5043398;28;20025;-73
2024/02/17 10:46:31;;;;;;;13.80;4.15;;;12.50;99.90;;;;;;5039799;28;20029;-73
2024/02/17 10:49:06;;;;;;;13.32;3.45;;;12.50;99.90;;;;;;5044493;28;20017;-73
2024/02/17 10:51:32;;;;;;;8.68;3.30;;;12.60;99.90;;;;;;5034995;28;20044;-73
2024/02/17 10:54:03;;;;;;;14.05;3.10;;;12.60;99.90;;;;;;5040692;28;20030;-74
2024/02/17 10:56:29;;;;;;;8.95;2.85;;;12.60;99.90;;;;;;5039746;28;20028;-75
2024/02/17 10:58:56;;;;;;;9.50;3.13;;;12.70;99.90;;;;;;5041211;28;20194;-73
2024/02/17 11:01:29;;;;;;;7.15;2.60;;;12.70;99.90;;;;;;5041370;28;20108;-75
2024/02/17 11:03:56;;;;;;;10.02;3.45;;;12.70;99.90;;;;;;5042768;28;20025;-73
2024/02/17 11:06:23;;;;;;;6.82;3.10;;;12.80;99.90;;;;;;5033525;28;20048;-75
2024/02/17 11:08:49;;;;;;;9.65;3.83;;;12.80;99.90;;;;;;5036167;28;20029;-74
2024/02/17 11:11:25;;;;;;;7.63;2.65;;;12.90;99.90;;;;;;5042785;28;20040;-75
2024/02/17 11:13:52;;;;;;;7.50;2.80;;;12.90;99.90;;;;;;5040873;28;20041;-73
2024/02/17 11:16:19;;;;;;;7.32;2.70;;;12.90;99.90;;;;;;5039948;28;20700;-76
2024/02/17 11:18:50;;;;;;;8.23;3.40;;;13.00;99.90;;;;;;5032124;28;20082;-75
2024/02/17 11:21:37;;;;;;;6.18;2.95;;;13.00;99.90;;;;;;5044575;28;20075;-75
2024/02/17 11:24:06;;;;;;;8.38;3.72;;;13.00;99.90;;;;;;5045946;28;20449;-74
2024/02/17 11:26:32;;;;;;;5.68;2.85;;;13.00;99.90;;;;;;5045619;28;20463;-76
2024/02/17 11:29:00;;;;;;;7.30;3.22;;;13.00;99.90;;;;;;5042348;28;20032;-77
2024/02/17 11:31:30;;;;;;;6.88;2.70;;;13.10;99.90;;;;;;5042858;28;20082;-78
2024/02/17 11:34:03;;;;;;;15.57;3.40;;;13.00;99.90;;;;;;5050608;28;20025;-75
2024/02/17 11:36:32;;;;;;;10.60;3.72;;;13.00;99.90;;;;;;5038375;28;20025;-75
2024/02/17 11:38:59;;;;;;;6.05;3.13;;;13.00;99.90;;;;;;5047747;28;20037;-78
2024/02/17 11:41:26;;;;;;;8.05;3.60;;;13.10;99.90;;;;;;5068801;28;20036;-74
2024/02/17 11:43:53;;;;;;;8.93;3.20;;;13.10;99.90;;;;;;5045888;28;20386;-74
2024/02/17 11:46:19;;;;;;;13.50;3.50;;;13.10;99.90;;;;;;5068852;28;21644;-74
2024/02/17 11:48:45;;;;;;;8.23;3.20;;;13.10;99.90;;;;;;5051245;28;20036;-74
2024/02/17 11:51:20;;;;;;;12.75;3.95;;;13.20;99.90;;;;;;5048737;28;20075;-74
2024/02/17 11:53:46;;;;;;;7.75;3.10;;;13.20;99.90;;;;;;5044337;28;20485;-74
2024/02/17 11:56:13;;;;;;;13.75;3.95;;;13.30;99.90;;;;;;5041530;28;20127;-72
2024/02/17 11:58:38;;;;;;;5.95;2.65;;;13.20;99.90;;;;;;5064212;28;20381;-74
2024/02/17 12:01:04;;;;;;;10.75;3.42;;;13.20;99.90;;;;;;5062721;28;20043;-74
2024/02/17 12:03:30;;;;;;;7.82;3.55;;;13.20;99.90;;;;;;5050465;28;20127;-73
2024/02/17 12:06:00;;;;;;;7.22;3.40;;;13.30;99.90;;;;;;5061484;28;20033;-75
2024/02/17 12:08:26;;;;;;;14.80;3.78;;;13.30;99.90;;;;;;5059653;28;20485;-74
2024/02/17 12:10:52;;;;;;;7.70;3.00;;;13.30;99.90;;;;;;5045736;28;20037;-72
2024/02/17 12:13:17;;;;;;;9.10;3.30;;;13.20;99.90;;;;;;5049380;28;20035;-75
2024/02/17 12:15:43;;;;;;;12.13;4.35;;;13.20;99.90;;;;;;5039658;28;20038;-74
2024/02/17 12:18:09;;;;;;;7.95;3.53;;;13.30;99.90;;;;;;5025908;28;20063;-73
2024/02/17 12:20:35;;;;;;;9.20;3.35;;;13.30;99.90;;;;;;5030449;28;20661;-75
2024/02/17 12:23:01;;;;;;;10.05;4.00;;;13.30;99.90;;;;;;5046377;28;20037;-76
2024/02/17 12:25:27;;;;;;;9.20;3.95;;;13.30;99.90;;;;;;5046538;28;20037;-73
2024/02/17 12:27:53;;;;;;;8.05;3.85;;;13.30;99.90;;;;;;5041568;28;20086;-73
2024/02/17 12:30:20;;;;;;;8.85;3.75;;;13.30;99.90;;;;;;5046290;28;20104;-77
2024/02/17 12:32:48;;;;;;;11.27;3.58;;;13.30;99.90;;;;;;5041009;28;20471;-73
2024/02/17 12:35:18;;;;;;;9.52;3.55;;;13.30;99.90;;;;;;5042762;28;20033;-74
2024/02/17 12:37:46;;;;;;;9.75;3.08;;;13.20;99.90;;;;;;5047374;28;20025;-75
2024/02/17 12:40:21;;;;;;;8.30;3.00;;;13.20;99.90;;;;;;5046702;28;20517;-76
2024/02/17 12:42:51;;;;;;;6.32;2.70;;;13.20;99.90;;;;;;5046524;28;20402;-74
2024/02/17 12:45:24;;;;;;;6.55;3.13;;;13.10;99.90;;;;;;5038028;28;20489;-76